Terminal Aerodrome Forecast
Issued by NWS

Home | Current Version | Previous Version | Text Only | Print | Product List | Glossary On
Versions: 1 2 3 4 5 6 7 8 9 10 11 12 13 14 15 16
000
FTUS43 KGRB 180520
TAFMTW
TAF
KMTW 180520Z 1806/1906 VRB03KT P6SM SCT030
      TEMPO 1806/1809 2SM BR
     FM180900 20004KT P6SM SCT045
      TEMPO 1809/1813 2SM BR
     FM181300 21009KT P6SM SCT200
     FM182000 17012KT P6SM SCT035 BKN150
      TEMPO 1901/1905 3SM -TSRA BKN035CB
     FM190500 28006KT 6SM -SHRA OVC015=

USA.gov is the U.S. government's official web portal to all federal, state and local government web resources and services.